Time;durP1;ratioP1;P1;durP2;ratioP2;P2;SDS_P1;SDS_P2;PMS_P1;PMS_P2;Temp;Humidity;BMP_temperature;BMP_pressure;BME280_temperature;BME280_humidity;BME280_pressure;Samples;Min_cycle;Max_cycle;Signal;HPM_P1;HPM_P2
2023/03/31 03:00:41;;;;;;;20.98;4.88;;;9.80;99.90;;;;;;6202277;22;20328;31
2023/03/31 03:03:25;;;;;;;20.85;3.63;;;9.80;99.90;;;;;;6160390;23;20386;-78
2023/03/31 03:06:15;;;;;;;17.98;3.80;;;9.80;99.90;;;;;;6185722;23;20013;-78
2023/03/31 03:08:54;;;;;;;21.90;4.22;;;9.80;99.90;;;;;;6187417;23;20025;-78
2023/03/31 03:11:59;;;;;;;17.60;3.70;;;9.70;99.90;;;;;;6173608;23;20013;-78
2023/03/31 03:14:59;;;;;;;21.58;4.20;;;9.80;99.90;;;;;;6156852;23;20382;-80
2023/03/31 03:17:39;;;;;;;19.45;3.60;;;9.70;99.90;;;;;;6113363;23;20324;-79
2023/03/31 03:20:08;;;;;;;18.35;5.03;;;9.80;99.90;;;;;;6131728;23;20089;-77
2023/03/31 03:22:35;;;;;;;17.83;3.88;;;9.80;99.90;;;;;;6131801;23;20009;-78
2023/03/31 03:25:01;;;;;;;20.45;3.80;;;9.80;99.90;;;;;;6132026;23;20132;-77
2023/03/31 03:27:27;;;;;;;17.55;5.13;;;9.80;99.90;;;;;;6131813;23;20469;-78
2023/03/31 03:29:53;;;;;;;13.38;4.13;;;9.80;99.90;;;;;;6131935;23;20020;-79
2023/03/31 03:32:18;;;;;;;23.80;4.75;;;9.80;99.90;;;;;;6131671;23;20013;-78
2023/03/31 03:34:44;;;;;;;15.50;4.25;;;9.80;99.90;;;;;;6158066;23;20013;-77
2023/03/31 03:37:10;;;;;;;15.85;3.90;;;9.80;99.90;;;;;;6157507;23;20017;-80
2023/03/31 03:39:36;;;;;;;19.80;5.07;;;9.70;99.90;;;;;;6156229;23;20040;-78
2023/03/31 03:42:02;;;;;;;22.98;4.97;;;9.80;99.90;;;;;;6156233;23;20021;-79
2023/03/31 03:44:28;;;;;;;24.65;5.15;;;9.70;99.90;;;;;;6107390;23;20021;-78
2023/03/31 03:46:53;;;;;;;18.85;5.00;;;9.70;99.90;;;;;;6131696;23;20014;-78
2023/03/31 03:49:19;;;;;;;16.90;5.90;;;9.70;99.90;;;;;;6131850;23;20017;-79
2023/03/31 03:51:45;;;;;;;22.20;5.03;;;9.70;99.90;;;;;;6157502;23;20097;-78
2023/03/31 03:54:10;;;;;;;20.40;5.50;;;9.70;99.90;;;;;;6131156;23;20017;-79
2023/03/31 03:56:36;;;;;;;22.30;5.72;;;9.70;99.90;;;;;;6131404;23;20018;-78
2023/03/31 03:59:02;;;;;;;20.08;5.70;;;9.70;99.90;;;;;;6131678;23;20154;-78
2023/03/31 04:01:27;;;;;;;21.13;6.57;;;9.70;99.90;;;;;;6131597;23;20077;-78
2023/03/31 04:03:53;;;;;;;19.45;7.00;;;9.70;99.90;;;;;;6156875;23;20064;-78
2023/03/31 04:06:19;;;;;;;15.93;5.75;;;9.70;99.90;;;;;;6157857;23;20076;-79
2023/03/31 04:08:44;;;;;;;20.85;6.55;;;9.60;99.90;;;;;;6131451;23;20285;-79
2023/03/31 04:11:18;;;;;;;19.95;6.57;;;9.60;99.90;;;;;;6131328;23;20053;-79
2023/03/31 04:13:45;;;;;;;22.25;7.10;;;9.60;99.90;;;;;;6131249;23;20014;-78
2023/03/31 04:16:12;;;;;;;21.52;6.63;;;9.60;99.90;;;;;;6132626;23;20021;-78
2023/03/31 04:18:44;;;;;;;25.73;7.50;;;9.60;99.90;;;;;;6157366;23;20017;-77
2023/03/31 04:21:14;;;;;;;24.27;7.30;;;9.60;99.90;;;;;;6131250;23;20009;-80
2023/03/31 04:23:45;;;;;;;20.35;6.97;;;9.70;99.90;;;;;;6106925;23;20139;-78
2023/03/31 04:26:17;;;;;;;23.02;8.40;;;9.60;99.90;;;;;;6106586;23;20017;-78
2023/03/31 04:28:49;;;;;;;20.60;6.97;;;9.70;99.90;;;;;;6131442;23;20017;-80
2023/03/31 04:31:23;;;;;;;26.35;8.93;;;9.60;99.90;;;;;;6130847;23;20027;-78
2023/03/31 04:33:50;;;;;;;23.08;7.78;;;9.70;99.90;;;;;;6131227;23;20463;-78
2023/03/31 04:36:16;;;;;;;28.60;7.90;;;9.70;99.90;;;;;;6157674;23;20009;-78
2023/03/31 04:38:45;;;;;;;23.80;8.00;;;9.70;99.90;;;;;;6130606;23;20013;-77
2023/03/31 04:41:13;;;;;;;20.10;7.72;;;9.70;99.90;;;;;;6130644;23;20014;-78
2023/03/31 04:43:38;;;;;;;23.00;8.18;;;9.70;99.90;;;;;;6155619;23;20014;-77
2023/03/31 04:46:04;;;;;;;21.83;8.10;;;9.70;99.90;;;;;;6157432;23;20327;-77
2023/03/31 04:48:30;;;;;;;27.27;8.35;;;9.70;99.90;;;;;;6156914;23;20097;-76
2023/03/31 04:50:55;;;;;;;19.13;8.20;;;9.80;99.90;;;;;;6130728;23;20014;-78
2023/03/31 04:53:21;;;;;;;27.00;8.25;;;9.70;99.90;;;;;;6130619;23;20049;-78
2023/03/31 04:55:48;;;;;;;24.75;8.40;;;9.70;99.90;;;;;;6155676;23;20013;-78
2023/03/31 04:58:14;;;;;;;24.63;8.13;;;9.70;99.90;;;;;;6130865;23;20144;-78
2023/03/31 05:00:40;;;;;;;24.35;7.82;;;9.70;99.90;;;;;;6156886;23;20447;-76
2023/03/31 05:03:06;;;;;;;20.92;7.43;;;9.80;99.90;;;;;;6130647;23;20072;-78
2023/03/31 05:05:32;;;;;;;23.42;7.25;;;9.80;99.90;;;;;;6157439;23;20048;-78
2023/03/31 05:07:57;;;;;;;20.45;8.13;;;9.80;99.90;;;;;;6156561;23;20506;-78
2023/03/31 05:10:23;;;;;;;16.40;7.18;;;9.80;99.90;;;;;;6130266;23;20052;-78
2023/03/31 05:12:49;;;;;;;40.72;9.45;;;9.80;99.90;;;;;;6156440;23;20020;-78
2023/03/31 05:15:15;;;;;;;22.15;6.80;;;9.80;99.90;;;;;;6130154;23;20025;-80
2023/03/31 05:17:40;;;;;;;22.50;6.80;;;9.80;99.90;;;;;;6156735;23;20439;-78
2023/03/31 05:20:08;;;;;;;22.27;6.95;;;9.80;99.90;;;;;;6156466;23;20312;-78
2023/03/31 05:22:38;;;;;;;15.27;5.85;;;9.70;99.90;;;;;;6155943;23;20225;-77
2023/03/31 05:25:06;;;;;;;14.63;5.72;;;9.80;99.90;;;;;;6154614;23;20022;-77
2023/03/31 05:27:32;;;;;;;24.45;6.53;;;9.80;99.90;;;;;;6156334;23;20017;-77
2023/03/31 05:29:58;;;;;;;18.60;6.32;;;9.70;99.90;;;;;;6105262;23;20013;-77
2023/03/31 05:32:25;;;;;;;19.45;5.80;;;9.80;99.90;;;;;;6129544;23;20077;-79
2023/03/31 05:34:51;;;;;;;17.15;4.90;;;9.70;99.90;;;;;;6129868;23;20025;-77
2023/03/31 05:37:19;;;;;;;19.00;5.75;;;9.70;99.90;;;;;;6156104;23;20068;-79
2023/03/31 05:39:45;;;;;;;21.13;5.57;;;9.70;99.90;;;;;;6155756;23;20072;-78
2023/03/31 05:42:11;;;;;;;23.27;5.90;;;9.70;99.90;;;;;;6129440;23;20013;-78
2023/03/31 05:44:38;;;;;;;21.15;5.47;;;9.70;99.90;;;;;;6156699;23;20331;-78
2023/03/31 05:47:05;;;;;;;18.75;5.82;;;9.70;99.90;;;;;;6157439;23;20021;-78
2023/03/31 05:49:30;;;;;;;17.77;6.20;;;9.60;99.90;;;;;;6140903;23;20024;-75
2023/03/31 05:51:56;;;;;;;25.95;7.03;;;9.60;99.90;;;;;;6173540;23;20017;-76
2023/03/31 05:54:22;;;;;;;18.60;6.75;;;9.60;99.90;;;;;;6133656;23;20057;-79
2023/03/31 05:56:47;;;;;;;21.45;6.78;;;9.60;99.90;;;;;;6131064;23;20386;-79
2023/03/31 05:59:14;;;;;;;25.38;7.75;;;9.60;99.90;;;;;;6130690;23;20029;-79
2023/03/31 06:01:39;;;;;;;20.30;7.03;;;9.60;99.90;;;;;;6156775;23;20009;-80
2023/03/31 06:04:08;;;;;;;15.43;6.40;;;9.60;99.90;;;;;;6130480;23;20035;-79
2023/03/31 06:06:36;;;;;;;23.40;6.68;;;9.60;99.90;;;;;;6156764;23;20033;-78
2023/03/31 06:09:16;;;;;;;;;;;;;;;;;;;;;
2023/03/31 06:54:11;;;;;;;16.60;5.55;;;9.50;99.90;;;;;;6218448;23;20021;-81
2023/03/31 06:57:55;;;;;;;13.80;5.45;;;9.60;99.90;;;;;;6191719;23;20013;-81
2023/03/31 06:59:59;;;;;;;14.77;5.70;;;9.60;99.90;;;;;;6194399;23;20063;-81
2023/03/31 07:02:25;;;;;;;13.90;5.72;;;9.50;99.90;;;;;;6191256;23;20096;-81
2023/03/31 07:09:15;;;;;;;15.52;5.78;;;9.60;99.90;;;;;;6097001;23;20057;-81
2023/03/31 07:11:43;;;;;;;13.30;5.80;;;9.50;99.90;;;;;;6077690;23;20037;-81
2023/03/31 07:14:09;;;;;;;18.40;5.80;;;9.60;99.90;;;;;;6183287;23;20024;-83
2023/03/31 07:16:35;;;;;;;17.63;6.93;;;9.60;99.90;;;;;;6191363;23;20013;-83
2023/03/31 07:19:09;;;;;;;15.98;6.35;;;9.60;99.90;;;;;;6217159;23;20023;-82
2023/03/31 07:21:36;;;;;;;15.73;6.68;;;9.50;99.90;;;;;;6216606;23;20056;-82
2023/03/31 07:45:06;;;;;;;;;;;;;;;;;;;;;
2023/03/31 07:52:53;;;;;;;;;;;;;;;;;;;;;
2023/03/31 07:55:39;;;;;;;17.88;5.82;;;9.90;99.90;;;;;;6166548;23;20017;-82
2023/03/31 07:58:34;;;;;;;16.55;5.68;;;9.90;99.90;;;;;;6159737;23;20580;-83
2023/03/31 08:08:09;;;;;;;16.35;5.72;;;10.00;99.90;;;;;;6101208;23;20018;-82
2023/03/31 08:15:15;;;;;;;;;;;;;;;;;;;;;
2023/03/31 08:22:06;;;;;;;;;;;;;;;;;;;;;
2023/03/31 08:25:13;;;;;;;18.42;5.20;;;10.10;99.90;;;;;;6034604;23;20026;-81
2023/03/31 08:27:40;;;;;;;13.90;4.90;;;10.10;99.90;;;;;;6017633;23;20026;-81
2023/03/31 08:30:07;;;;;;;15.20;5.40;;;10.10;99.90;;;;;;6106282;23;20028;-80
2023/03/31 08:32:44;;;;;;;15.60;5.07;;;10.10;99.90;;;;;;6200722;23;20039;-82
2023/03/31 08:35:10;;;;;;;14.48;5.07;;;10.10;99.90;;;;;;6195099;23;20017;-81
2023/03/31 08:37:37;;;;;;;17.30;5.30;;;10.10;99.90;;;;;;6247726;23;20087;-82
2023/03/31 08:40:08;;;;;;;20.42;6.88;;;10.10;99.90;;;;;;6247871;23;20014;-83
2023/03/31 08:42:52;;;;;;;18.73;5.40;;;10.10;99.90;;;;;;6195774;23;20430;-81
2023/03/31 08:45:25;;;;;;;24.88;6.50;;;10.20;99.90;;;;;;6195066;23;20333;-81
2023/03/31 08:48:04;;;;;;;12.73;4.93;;;10.30;99.90;;;;;;6247979;23;20005;-83
2023/03/31 08:50:34;;;;;;;15.82;5.38;;;10.30;99.90;;;;;;6247588;23;20094;-84
2023/03/31 08:53:29;;;;;;;12.93;5.00;;;10.30;99.90;;;;;;6247175;23;20441;-83
2023/03/31 08:55:56;;;;;;;12.98;4.88;;;10.40;99.90;;;;;;6247159;23;20020;-80
2023/03/31 08:58:41;;;;;;;13.05;4.60;;;10.50;99.90;;;;;;6246809;23;20015;-84
2023/03/31 09:01:42;;;;;;;17.13;5.05;;;10.50;99.90;;;;;;6220132;23;20523;-82
2023/03/31 09:04:16;;;;;;;13.43;4.82;;;10.60;99.90;;;;;;6219617;23;20026;-80
2023/03/31 09:07:01;;;;;;;11.73;4.30;;;10.60;99.90;;;;;;6247297;23;20319;-81
2023/03/31 09:09:37;;;;;;;12.80;4.70;;;10.60;99.90;;;;;;6220260;23;20243;-84
2023/03/31 09:12:24;;;;;;;11.85;4.75;;;10.70;99.90;;;;;;6220547;23;20020;-83
2023/03/31 09:15:01;;;;;;;15.50;4.57;;;10.70;99.90;;;;;;6221159;23;20023;-82
2023/03/31 09:17:50;;;;;;;8.52;3.88;;;10.80;99.90;;;;;;6246869;23;20031;-81
2023/03/31 09:20:27;;;;;;;13.20;4.15;;;10.80;99.90;;;;;;6220544;23;20434;-85
2023/03/31 09:23:05;;;;;;;11.20;4.35;;;10.80;99.90;;;;;;6247006;23;20012;-83
2023/03/31 09:25:35;;;;;;;17.10;5.00;;;10.80;99.90;;;;;;6221299;23;20092;-81
2023/03/31 09:28:03;;;;;;;12.13;3.65;;;10.80;99.90;;;;;;6220404;23;20020;-82
2023/03/31 09:30:32;;;;;;;9.85;4.32;;;10.80;99.90;;;;;;6220065;23;20095;-80
2023/03/31 09:33:30;;;;;;;9.43;4.32;;;10.90;99.90;;;;;;6247164;23;20031;-82
2023/03/31 09:36:00;;;;;;;10.52;3.25;;;10.90;99.90;;;;;;6220149;23;20017;-79
2023/03/31 09:38:28;;;;;;;7.55;3.20;;;10.80;99.90;;;;;;6220180;23;20008;-82
2023/03/31 09:40:59;;;;;;;8.00;3.42;;;10.80;99.90;;;;;;6220343;23;20019;-82
2023/03/31 09:43:27;;;;;;;8.77;3.60;;;10.70;99.90;;;;;;6221012;23;20012;-81
2023/03/31 09:45:54;;;;;;;8.38;3.50;;;10.70;99.90;;;;;;6246806;23;20450;-80
2023/03/31 09:48:27;;;;;;;12.43;4.10;;;10.70;99.90;;;;;;6246741;23;20066;-82
2023/03/31 09:51:06;;;;;;;9.07;3.95;;;10.80;99.90;;;;;;6246822;23;20445;-80
2023/03/31 09:54:06;;;;;;;11.02;3.72;;;10.80;99.90;;;;;;6246856;23;20016;-80
2023/03/31 09:56:33;;;;;;;7.90;3.45;;;10.90;99.90;;;;;;6095854;23;20123;-82
2023/03/31 09:59:02;;;;;;;10.77;3.50;;;11.00;99.90;;;;;;6246311;23;20130;-83
2023/03/31 10:01:28;;;;;;;11.68;3.55;;;11.10;99.90;;;;;;6246056;23;20058;-84
2023/03/31 10:03:55;;;;;;;8.60;3.63;;;11.10;99.90;;;;;;6220592;23;20020;-80
2023/03/31 10:06:23;;;;;;;12.32;3.72;;;11.20;99.90;;;;;;6247577;23;20008;-82
2023/03/31 10:09:01;;;;;;;11.65;3.80;;;11.30;99.90;;;;;;6246727;23;20008;-84
2023/03/31 10:11:27;;;;;;;9.38;3.47;;;11.40;99.90;;;;;;6220253;23;20065;-81
2023/03/31 10:14:12;;;;;;;11.32;3.38;;;11.50;99.90;;;;;;6246853;23;20098;-82
2023/03/31 10:16:47;;;;;;;10.95;3.40;;;11.60;99.90;;;;;;6246406;23;20432;-80
2023/03/31 10:19:33;;;;;;;10.27;3.70;;;11.60;99.90;;;;;;6245952;23;20016;-84
2023/03/31 10:22:05;;;;;;;11.27;3.63;;;11.70;99.90;;;;;;6218470;23;20012;-82
2023/03/31 10:24:40;;;;;;;11.25;3.47;;;11.60;99.90;;;;;;6219086;23;20051;-79
2023/03/31 10:27:22;;;;;;;11.25;3.30;;;11.70;99.90;;;;;;6246102;23;20055;-82
2023/03/31 10:29:54;;;;;;;9.30;3.50;;;11.80;99.90;;;;;;6219221;23;20016;-84
2023/03/31 10:32:31;;;;;;;10.40;3.67;;;11.90;99.90;;;;;;6246441;23;20005;-82
2023/03/31 10:35:04;;;;;;;8.20;3.40;;;12.10;99.90;;;;;;6246808;23;20039;-82
2023/03/31 10:37:33;;;;;;;10.90;3.33;;;12.20;99.90;;;;;;6246563;23;20046;-84
2023/03/31 10:40:05;;;;;;;12.85;3.28;;;12.10;99.90;;;;;;6219666;23;20012;-85
2023/03/31 10:42:31;;;;;;;9.73;2.88;;;12.10;99.90;;;;;;6219470;23;20433;-81
2023/03/31 10:45:15;;;;;;;8.80;3.17;;;12.10;99.90;;;;;;6247204;23;20012;-82
2023/03/31 10:47:41;;;;;;;11.88;3.55;;;12.20;99.90;;;;;;6246460;23;20020;-83
2023/03/31 10:50:14;;;;;;;9.73;3.47;;;12.20;99.90;;;;;;6247186;23;20008;-83
2023/03/31 10:52:45;;;;;;;11.82;3.42;;;12.10;99.90;;;;;;6219641;23;20039;-82
2023/03/31 10:55:25;;;;;;;9.43;3.33;;;12.10;99.90;;;;;;6224521;23;20024;-78
2023/03/31 10:57:54;;;;;;;9.63;3.42;;;12.10;99.90;;;;;;6213798;23;20015;-79
2023/03/31 11:00:49;;;;;;;12.07;3.85;;;12.00;99.90;;;;;;6236238;23;20012;-81
2023/03/31 11:03:49;;;;;;;7.57;3.42;;;12.10;99.90;;;;;;6248183;23;20028;-84
2023/03/31 11:06:23;;;;;;;12.55;3.05;;;12.00;99.90;;;;;;6220219;23;20066;-83
2023/03/31 11:09:15;;;;;;;9.13;2.78;;;12.10;99.90;;;;;;6220650;23;20024;-82
2023/03/31 11:11:59;;;;;;;9.20;2.80;;;12.20;99.90;;;;;;6220138;23;20083;-82
2023/03/31 11:14:34;;;;;;;9.65;2.92;;;12.20;99.90;;;;;;6246551;23;20389;-81
2023/03/31 11:17:17;;;;;;;7.40;2.50;;;12.30;99.90;;;;;;6220991;23;20016;-81
2023/03/31 11:19:46;;;;;;;9.93;3.08;;;12.40;99.90;;;;;;6247243;23;20087;-81
2023/03/31 11:22:28;;;;;;;9.77;2.70;;;12.30;99.90;;;;;;6219089;23;20015;-82
2023/03/31 11:25:09;;;;;;;8.82;2.60;;;12.40;99.90;;;;;;6246105;23;20362;-80
2023/03/31 11:28:07;;;;;;;12.82;3.30;;;12.40;99.90;;;;;;6219283;23;20020;-83
2023/03/31 11:30:57;;;;;;;9.05;2.97;;;12.50;99.90;;;;;;6221982;23;20500;-83
2023/03/31 11:33:56;;;;;;;7.63;2.92;;;12.40;99.90;;;;;;6248184;23;20016;-82
2023/03/31 11:36:51;;;;;;;9.82;2.67;;;12.40;99.90;;;;;;6220014;23;20118;-81
2023/03/31 11:39:53;;;;;;;13.65;3.42;;;12.30;99.90;;;;;;6220613;23;20337;-80
2023/03/31 11:42:52;;;;;;;9.27;3.22;;;12.30;99.90;;;;;;6220809;23;20401;-81
2023/03/31 11:45:37;;;;;;;14.15;3.63;;;12.20;99.90;;;;;;6248100;23;20403;-80
2023/03/31 11:48:11;;;;;;;9.60;3.33;;;12.30;99.90;;;;;;6197566;23;20296;-82
2023/03/31 11:50:40;;;;;;;13.25;3.17;;;12.20;99.90;;;;;;6220925;23;20430;-81
2023/03/31 11:53:29;;;;;;;16.33;4.43;;;12.20;99.90;;;;;;6248681;23;20016;-81
2023/03/31 11:55:56;;;;;;;9.45;3.00;;;12.30;99.90;;;;;;6248477;23;20083;-82
2023/03/31 11:58:37;;;;;;;9.65;3.33;;;12.30;99.90;;;;;;6220499;23;20012;-82
2023/03/31 12:01:35;;;;;;;12.70;3.75;;;12.40;99.90;;;;;;6221605;23;20005;-83
2023/03/31 12:04:04;;;;;;;13.38;3.72;;;12.40;99.90;;;;;;6237883;23;20012;-81
2023/03/31 12:06:38;;;;;;;18.35;4.65;;;12.40;99.90;;;;;;6248043;23;20330;-82
2023/03/31 12:09:26;;;;;;;8.07;3.30;;;12.50;99.90;;;;;;6247737;23;20016;-82
2023/03/31 12:12:01;;;;;;;17.20;4.10;;;12.40;99.90;;;;;;6220328;23;20016;-82
2023/03/31 12:14:30;;;;;;;13.35;4.63;;;12.40;99.90;;;;;;6220278;23;20014;-82
2023/03/31 12:17:05;;;;;;;16.13;4.18;;;12.40;99.90;;;;;;6247116;23;20333;-81
2023/03/31 12:19:48;;;;;;;21.98;5.22;;;12.30;99.90;;;;;;6220290;23;20008;-79
2023/03/31 12:22:34;;;;;;;16.63;4.97;;;12.20;99.90;;;;;;6246995;23;20422;-84
2023/03/31 12:25:00;;;;;;;16.77;5.20;;;12.20;99.90;;;;;;6246878;23;20417;-82
2023/03/31 12:27:40;;;;;;;19.17;6.70;;;12.20;99.90;;;;;;6194983;23;20016;-81
2023/03/31 12:30:18;;;;;;;18.95;6.47;;;12.30;99.90;;;;;;6220209;23;20023;-81
2023/03/31 12:32:55;;;;;;;18.85;5.93;;;12.30;99.90;;;;;;6219875;23;20345;-82
2023/03/31 12:35:21;;;;;;;17.50;6.10;;;12.40;99.90;;;;;;6220040;23;20042;-82
2023/03/31 12:37:59;;;;;;;14.57;5.10;;;12.50;99.90;;;;;;6220616;23;20493;-79
2023/03/31 12:40:44;;;;;;;19.48;6.25;;;12.40;99.90;;;;;;6219763;23;20024;-81
2023/03/31 12:43:37;;;;;;;20.85;5.40;;;12.40;99.90;;;;;;6219893;23;20338;-80
2023/03/31 12:46:22;;;;;;;15.90;4.78;;;12.40;99.90;;;;;;6246597;23;20434;-81
2023/03/31 12:49:31;;;;;;;14.23;4.60;;;12.40;99.90;;;;;;6219944;23;20016;-79
2023/03/31 12:52:01;;;;;;;17.92;4.85;;;12.30;99.90;;;;;;6220020;23;20373;-81
2023/03/31 12:54:47;;;;;;;16.98;3.75;;;12.30;99.90;;;;;;6246663;23;20017;-80
2023/03/31 12:57:21;;;;;;;13.18;3.75;;;12.20;99.90;;;;;;6194889;23;20066;-82
2023/03/31 13:00:17;;;;;;;12.60;3.15;;;12.10;99.90;;;;;;6219792;23;20012;-80
2023/03/31 13:02:43;;;;;;;;;;;12.00;99.90;;;;;;6194840;23;20410;-79
2023/03/31 13:05:36;;;;;;;9.13;2.03;;;11.90;99.90;;;;;;6219886;23;19911;-81
2023/03/31 13:08:07;;;;;;;7.60;1.60;;;11.70;99.90;;;;;;6219352;23;20016;-81
2023/03/31 13:10:52;;;;;;;5.50;1.27;;;11.60;99.90;;;;;;6219279;23;20047;-79
2023/03/31 13:13:18;;;;;;;6.25;1.30;;;11.50;99.90;;;;;;6247101;23;20071;-82
2023/03/31 13:15:52;;;;;;;14.40;2.80;;;11.50;99.90;;;;;;6219565;23;20084;-79
2023/03/31 13:18:19;;;;;;;10.18;2.47;;;11.60;99.90;;;;;;6219467;23;20019;-81
2023/03/31 13:20:45;;;;;;;10.10;2.20;;;11.70;99.90;;;;;;6219669;23;20338;-81
2023/03/31 13:23:18;;;;;;;9.05;1.98;;;11.80;99.90;;;;;;6219764;23;20016;-82
2023/03/31 13:25:52;;;;;;;10.27;1.80;;;11.90;99.90;;;;;;6219664;23;20008;-82
2023/03/31 13:28:21;;;;;;;11.13;1.90;;;12.00;99.90;;;;;;6219432;23;20020;-82
2023/03/31 13:30:51;;;;;;;14.20;3.00;;;12.00;99.90;;;;;;6219173;23;20338;-81
2023/03/31 13:33:52;;;;;;;11.18;2.10;;;12.00;99.90;;;;;;6218982;23;20043;-83
2023/03/31 13:36:33;;;;;;;10.55;1.98;;;12.00;99.90;;;;;;6221235;23;20061;-80
2023/03/31 13:39:40;;;;;;;8.52;2.03;;;11.80;99.90;;;;;;6219256;23;20077;-80
2023/03/31 13:42:47;;;;;;;9.65;2.22;;;11.90;99.90;;;;;;6147727;23;20050;-80
2023/03/31 13:45:28;;;;;;;10.98;2.35;;;12.10;99.90;;;;;;6246698;23;20338;-81
2023/03/31 13:48:26;;;;;;;11.43;1.98;;;12.20;99.90;;;;;;6219316;23;20016;-81
2023/03/31 13:51:18;;;;;;;12.25;3.08;;;12.20;99.90;;;;;;6219409;23;20341;-79
2023/03/31 13:54:04;;;;;;;8.50;1.83;;;12.20;99.90;;;;;;6245813;23;20047;-83
2023/03/31 13:56:33;;;;;;;8.85;1.88;;;12.20;99.90;;;;;;6246582;23;20078;-81
2023/03/31 13:59:17;;;;;;;8.15;2.25;;;12.20;99.90;;;;;;6219920;23;20019;-83
2023/03/31 14:02:16;;;;;;;11.77;2.63;;;12.40;99.90;;;;;;6246641;23;20004;-83
2023/03/31 14:04:45;;;;;;;8.20;1.98;;;12.40;99.90;;;;;;6247237;23;20016;-83
2023/03/31 14:07:27;;;;;;;6.90;1.55;;;12.50;99.90;;;;;;6219875;23;20020;-82
2023/03/31 14:09:53;;;;;;;6.72;1.20;;;12.50;99.90;;;;;;6247067;23;20057;-82
2023/03/31 14:12:20;;;;;;;6.32;1.48;;;12.30;99.90;;;;;;6247140;23;20409;-85
2023/03/31 14:14:47;;;;;;;3.35;0.80;;;12.20;99.90;;;;;;6247060;23;20058;-83
2023/03/31 14:17:14;;;;;;;4.97;1.00;;;12.20;99.90;;;;;;6219418;23;20016;-81
2023/03/31 14:19:49;;;;;;;2.45;0.82;;;12.30;99.90;;;;;;6219114;23;20392;-84
2023/03/31 14:22:44;;;;;;;3.90;0.80;;;12.20;99.90;;;;;;6218978;23;20008;-83
2023/03/31 14:25:29;;;;;;;5.95;1.00;;;12.30;99.90;;;;;;6220230;23;20015;-82
2023/03/31 14:28:22;;;;;;;3.83;1.02;;;12.40;99.90;;;;;;6220011;23;20442;-80
2023/03/31 14:31:09;;;;;;;4.72;1.10;;;12.50;99.90;;;;;;6219438;23;20512;-84
2023/03/31 14:33:38;;;;;;;5.82;1.20;;;12.60;99.90;;;;;;6219288;23;20555;-80
2023/03/31 14:36:24;;;;;;;4.47;1.27;;;12.60;99.90;;;;;;6194502;23;20091;-82
2023/03/31 14:38:51;;;;;;;5.32;1.10;;;12.50;99.90;;;;;;6219533;23;20446;-82
2023/03/31 14:41:28;;;;;;;7.93;1.38;;;12.50;99.90;;;;;;6245796;23;20442;-81
2023/03/31 14:43:57;;;;;;;7.57;1.83;;;12.40;99.90;;;;;;6246638;23;20019;-82
2023/03/31 14:46:22;;;;;;;7.45;1.30;;;12.40;99.90;;;;;;6219510;23;20093;-84
2023/03/31 14:48:50;;;;;;;5.70;1.15;;;12.50;99.90;;;;;;6246746;23;20012;-80
2023/03/31 14:51:29;;;;;;;7.55;1.20;;;12.50;99.90;;;;;;6219129;23;20016;-83
2023/03/31 14:53:59;;;;;;;6.60;1.60;;;12.40;99.90;;;;;;6246270;23;20016;-83
2023/03/31 14:56:48;;;;;;;6.28;1.65;;;12.50;99.90;;;;;;6246787;23;20019;-82
2023/03/31 14:59:24;;;;;;;6.80;1.38;;;12.50;99.90;;;;;;6219457;23;20015;-83
2023/03/31 15:01:50;;;;;;;5.15;1.67;;;12.60;99.90;;;;;;6246248;23;20072;-82
2023/03/31 15:04:22;;;;;;;8.52;2.30;;;12.70;99.90;;;;;;6247786;23;20462;-81
2023/03/31 15:06:49;;;;;;;8.63;1.90;;;12.70;99.90;;;;;;6221636;23;20023;-83
2023/03/31 15:09:29;;;;;;;6.60;1.70;;;12.70;99.90;;;;;;6221229;23;20067;-82
2023/03/31 15:12:06;;;;;;;9.77;2.10;;;12.70;99.90;;;;;;6195869;23;20484;-83
2023/03/31 15:14:35;;;;;;;7.95;2.58;;;12.60;99.90;;;;;;6248561;23;20008;-81
2023/03/31 15:17:01;;;;;;;7.63;2.10;;;12.60;99.90;;;;;;6248368;23;20414;-84
2023/03/31 15:19:32;;;;;;;7.45;1.88;;;12.60;99.90;;;;;;6196182;23;20016;-81
2023/03/31 15:22:09;;;;;;;8.73;1.80;;;12.60;99.90;;;;;;6248197;23;20019;-80
2023/03/31 15:24:35;;;;;;;10.90;2.47;;;12.60;99.90;;;;;;6195980;23;20063;-82
2023/03/31 15:27:03;;;;;;;7.82;1.90;;;12.50;99.90;;;;;;6220939;23;20012;-82
2023/03/31 15:29:37;;;;;;;7.45;1.88;;;12.50;99.90;;;;;;6220852;23;20012;-82
2023/03/31 15:32:10;;;;;;;7.85;2.00;;;12.60;99.90;;;;;;6248228;23;20008;-81
2023/03/31 15:34:36;;;;;;;9.82;2.28;;;12.50;99.90;;;;;;6221351;23;20024;-83
2023/03/31 15:37:05;;;;;;;9.70;2.05;;;12.50;99.90;;;;;;6247744;23;20446;-83
2023/03/31 15:39:34;;;;;;;8.75;2.15;;;12.50;99.90;;;;;;6221675;23;20019;-83
2023/03/31 15:42:02;;;;;;;8.32;1.67;;;12.40;99.90;;;;;;6221503;23;20083;-84
2023/03/31 15:44:34;;;;;;;6.47;1.65;;;12.30;99.90;;;;;;6221157;23;20020;-79
2023/03/31 15:47:05;;;;;;;8.82;1.70;;;12.30;99.90;;;;;;6220964;23;20019;-83
2023/03/31 15:49:31;;;;;;;7.05;1.88;;;12.30;99.90;;;;;;6220535;23;20027;-82
2023/03/31 15:51:59;;;;;;;8.68;1.83;;;12.20;99.90;;;;;;6220007;23;20368;-84
2023/03/31 15:54:36;;;;;;;7.68;1.80;;;12.20;99.90;;;;;;6219377;23;20439;-81
2023/03/31 15:57:07;;;;;;;7.25;1.80;;;12.20;99.90;;;;;;6247155;23;20008;-81
2023/03/31 15:59:44;;;;;;;8.18;2.15;;;12.30;99.90;;;;;;6220858;23;20066;-82
2023/03/31 16:02:16;;;;;;;7.32;2.28;;;12.30;99.90;;;;;;6195427;23;20019;-83
2023/03/31 16:04:42;;;;;;;10.88;2.22;;;12.30;99.90;;;;;;6220282;23;20058;-81
2023/03/31 16:07:17;;;;;;;10.80;2.45;;;12.30;99.90;;;;;;6194891;23;20015;-82
2023/03/31 16:10:06;;;;;;;9.95;2.28;;;12.30;99.90;;;;;;6220495;23;20056;-83
2023/03/31 16:12:56;;;;;;;11.25;2.80;;;12.30;99.90;;;;;;6246207;23;20019;-82
2023/03/31 16:15:43;;;;;;;12.50;2.28;;;12.20;99.90;;;;;;6246877;23;20011;-83
2023/03/31 16:18:23;;;;;;;8.85;2.53;;;12.20;99.90;;;;;;6221197;23;20071;-81
2023/03/31 16:20:56;;;;;;;8.52;2.30;;;12.10;99.90;;;;;;6247186;23;20393;-85
2023/03/31 16:23:30;;;;;;;9.93;2.17;;;12.10;99.90;;;;;;6220917;23;20008;-83
2023/03/31 16:25:57;;;;;;;9.35;2.00;;;12.10;99.90;;;;;;6219403;23;20016;-81
2023/03/31 16:28:29;;;;;;;11.68;2.85;;;12.00;99.90;;;;;;6247774;23;20012;-82
2023/03/31 16:30:57;;;;;;;9.75;2.50;;;12.00;99.90;;;;;;6247506;23;20321;-82
2023/03/31 16:33:23;;;;;;;10.02;2.22;;;12.00;99.90;;;;;;6245878;23;20011;-80
2023/03/31 16:35:55;;;;;;;9.15;2.20;;;12.00;99.90;;;;;;6195096;23;20013;-80
2023/03/31 16:38:28;;;;;;;7.18;2.00;;;11.90;99.90;;;;;;6222638;23;20138;-79
2023/03/31 16:40:59;;;;;;;7.45;2.00;;;11.90;99.90;;;;;;6225242;23;20009;-79
2023/03/31 16:43:30;;;;;;;5.90;1.80;;;11.90;99.90;;;;;;6228549;23;20035;-80
2023/03/31 16:45:58;;;;;;;9.18;2.90;;;11.90;99.90;;;;;;6228353;23;20016;-80
2023/03/31 16:48:26;;;;;;;9.80;2.28;;;11.90;99.90;;;;;;6230526;23;20519;-81
2023/03/31 16:50:54;;;;;;;7.13;1.67;;;11.90;99.90;;;;;;6230315;23;20114;-82
2023/03/31 16:53:26;;;;;;;6.78;2.42;;;11.90;99.90;;;;;;6221915;23;20012;-84
2023/03/31 16:55:53;;;;;;;6.78;2.03;;;11.90;99.90;;;;;;6221573;23;20346;-81
2023/03/31 16:58:19;;;;;;;5.85;1.90;;;11.80;99.90;;;;;;6221031;23;20009;-83
2023/03/31 17:00:46;;;;;;;6.15;1.95;;;11.70;99.90;;;;;;6220896;23;20442;-79
2023/03/31 17:03:13;;;;;;;6.32;1.80;;;11.60;99.90;;;;;;6220733;23;20043;-82
2023/03/31 17:05:44;;;;;;;5.72;1.60;;;11.50;99.90;;;;;;6247731;23;20008;-82
2023/03/31 17:08:11;;;;;;;5.82;2.17;;;11.40;99.90;;;;;;6221277;23;20016;-81
2023/03/31 17:10:38;;;;;;;8.00;2.25;;;11.40;99.90;;;;;;6220994;23;20091;-80
2023/03/31 17:13:04;;;;;;;5.22;2.00;;;11.30;99.90;;;;;;6220465;23;20438;-80
2023/03/31 17:15:30;;;;;;;4.13;1.90;;;11.20;99.90;;;;;;6220407;23;20023;-82
2023/03/31 17:17:57;;;;;;;4.78;2.13;;;11.20;99.90;;;;;;6247647;23;20047;-79
2023/03/31 17:20:26;;;;;;;6.72;2.60;;;11.10;99.90;;;;;;6221003;23;20016;-82
2023/03/31 17:22:53;;;;;;;8.27;2.58;;;11.10;99.90;;;;;;6220382;23;20009;-81
2023/03/31 17:25:19;;;;;;;8.55;3.05;;;11.10;99.90;;;;;;6220350;23;20069;-83
2023/03/31 17:27:45;;;;;;;7.75;2.75;;;11.10;99.90;;;;;;6247597;23;20004;-82
2023/03/31 17:30:11;;;;;;;8.60;2.75;;;11.00;99.90;;;;;;6220355;23;20442;-81
2023/03/31 17:32:37;;;;;;;10.13;2.58;;;11.10;99.90;;;;;;6247094;23;20096;-82
2023/03/31 17:35:03;;;;;;;4.43;2.30;;;11.00;99.90;;;;;;6219977;23;20023;-82
2023/03/31 17:37:29;;;;;;;9.10;2.97;;;11.00;99.90;;;;;;6195215;23;20016;-82
2023/03/31 17:39:56;;;;;;;10.02;2.75;;;11.00;99.90;;;;;;6220137;23;20020;-82
2023/03/31 17:42:21;;;;;;;7.20;2.80;;;11.10;99.90;;;;;;6219137;23;20012;-80
2023/03/31 17:44:50;;;;;;;8.80;2.90;;;11.00;99.90;;;;;;6219892;23;20052;-83
2023/03/31 17:47:16;;;;;;;9.38;3.03;;;11.00;99.90;;;;;;6247493;23;20016;-80
2023/03/31 17:49:42;;;;;;;6.97;2.83;;;11.00;99.90;;;;;;6246946;23;20182;-81
2023/03/31 17:52:08;;;;;;;13.50;3.55;;;11.00;99.90;;;;;;6246363;23;20087;-84
2023/03/31 17:54:33;;;;;;;8.57;3.00;;;11.10;99.90;;;;;;6246994;23;20087;-83